Time;durP1;ratioP1;P1;durP2;ratioP2;P2;SDS_P1;SDS_P2;PMS_P1;PMS_P2;Temp;Humidity;BMP_temperature;BMP_pressure;BME280_temperature;BME280_humidity;BME280_pressure;Samples;Min_cycle;Max_cycle;Signal;HPM_P1;HPM_P2
2023/05/10 00:01:22;;;;;;;1.50;1.10;;;21.40;63.50;;;;;;5064920;28;20718;-44
2023/05/10 00:03:54;;;;;;;1.20;1.10;;;21.50;63.50;;;;;;5070847;28;20202;-45
2023/05/10 00:06:35;;;;;;;1.23;1.07;;;21.50;63.60;;;;;;5072332;28;20212;-45
2023/05/10 00:09:04;;;;;;;1.23;1.00;;;21.50;63.50;;;;;;5066101;28;20201;-45
2023/05/10 00:11:46;;;;;;;2.40;0.97;;;21.50;63.60;;;;;;5073270;28;20198;-45
2023/05/10 00:14:15;;;;;;;0.80;0.80;;;21.50;63.60;;;;;;5056852;28;20222;-45
2023/05/10 00:16:46;;;;;;;1.10;0.93;;;21.40;63.50;;;;;;5071226;28;20714;-45
2023/05/10 00:19:15;;;;;;;1.40;1.00;;;21.40;63.50;;;;;;5069204;28;20213;-45
2023/05/10 00:21:47;;;;;;;1.13;0.90;;;21.40;63.50;;;;;;5067031;28;20266;-45
2023/05/10 00:24:18;;;;;;;0.93;0.90;;;21.40;63.50;;;;;;5062846;28;20217;-45
2023/05/10 00:26:47;;;;;;;1.27;1.17;;;21.40;63.50;;;;;;5064254;28;20626;-45
2023/05/10 00:29:19;;;;;;;1.13;1.03;;;21.40;63.60;;;;;;5062391;28;20202;-45
2023/05/10 00:32:03;;;;;;;1.33;0.87;;;21.40;63.60;;;;;;5064734;28;20218;-44
2023/05/10 00:34:35;;;;;;;1.10;1.00;;;21.40;63.60;;;;;;5072639;28;20206;-44
2023/05/10 00:37:08;;;;;;;1.10;1.00;;;21.40;64.20;;;;;;5060365;28;20649;-45
2023/05/10 00:39:40;;;;;;;1.63;1.10;;;21.40;63.60;;;;;;5067318;28;20217;-44
2023/05/10 00:42:10;;;;;;;0.80;0.80;;;21.40;63.60;;;;;;5064187;28;20527;-45
2023/05/10 00:44:41;;;;;;;1.03;0.93;;;21.40;63.60;;;;;;5070650;28;20198;-45
2023/05/10 00:47:14;;;;;;;1.70;0.90;;;21.40;63.60;;;;;;5070917;28;20202;-45
2023/05/10 00:49:45;;;;;;;1.30;1.20;;;21.40;63.60;;;;;;5073047;28;20777;-44
2023/05/10 00:52:15;;;;;;;0.90;0.90;;;21.40;63.60;;;;;;5068570;28;20640;-44
2023/05/10 00:54:44;;;;;;;1.60;1.00;;;21.40;63.60;;;;;;5055186;28;20259;-44
2023/05/10 00:57:12;;;;;;;1.23;0.90;;;21.40;63.60;;;;;;5053634;28;20522;-44
2023/05/10 00:59:42;;;;;;;1.03;0.93;;;21.40;63.60;;;;;;5070103;28;20657;-44
2023/05/10 01:02:13;;;;;;;2.20;1.00;;;21.40;63.60;;;;;;5030209;28;20571;-45
2023/05/10 01:04:48;;;;;;;0.90;0.90;;;21.40;63.60;;;;;;5064846;28;20659;-45
2023/05/10 01:07:20;;;;;;;0.90;0.90;;;21.30;63.60;;;;;;5068536;28;20205;-44
2023/05/10 01:09:49;;;;;;;1.03;0.90;;;21.40;63.70;;;;;;5070822;28;20259;-45
2023/05/10 01:12:19;;;;;;;1.57;0.80;;;21.40;63.70;;;;;;5066553;28;20264;-44
2023/05/10 01:14:48;;;;;;;1.00;0.90;;;21.40;64.30;;;;;;5053066;28;20279;-44
2023/05/10 01:17:17;;;;;;;0.70;0.70;;;21.40;63.70;;;;;;5067742;28;20232;-44
2023/05/10 01:19:49;;;;;;;0.80;0.63;;;21.40;64.20;;;;;;5054622;28;20213;-44
2023/05/10 01:22:55;;;;;;;0.87;0.70;;;21.40;63.70;;;;;;5034166;28;20208;-45
2023/05/10 01:25:50;;;;;;;0.80;0.80;;;21.40;63.70;;;;;;5067855;28;20202;-44
2023/05/10 01:28:53;;;;;;;0.80;0.80;;;21.30;63.70;;;;;;5070520;28;20194;-45
2023/05/10 01:31:59;;;;;;;1.03;0.77;;;21.30;63.70;;;;;;5079746;28;20182;-44
2023/05/10 01:34:35;;;;;;;1.20;1.10;;;21.30;63.70;;;;;;5070300;28;20879;-45
2023/05/10 01:37:25;;;;;;;0.93;0.73;;;21.30;63.80;;;;;;5050318;28;20217;-44
2023/05/10 01:40:05;;;;;;;1.00;0.80;;;21.30;63.80;;;;;;5080266;28;20236;-44
2023/05/10 01:42:47;;;;;;;1.43;1.03;;;21.30;63.80;;;;;;5070101;28;20194;-44
2023/05/10 01:45:51;;;;;;;0.63;0.63;;;21.30;63.80;;;;;;5052494;28;20206;-44
2023/05/10 01:48:31;;;;;;;0.87;0.87;;;21.30;63.80;;;;;;5077814;28;20232;-45
2023/05/10 01:51:01;;;;;;;0.77;0.70;;;21.30;63.90;;;;;;5075475;28;20205;-45
2023/05/10 01:53:37;;;;;;;0.87;0.87;;;21.30;63.90;;;;;;5068507;28;20286;-44
2023/05/10 01:56:11;;;;;;;0.87;0.87;;;21.30;63.90;;;;;;5050452;28;20185;-44
2023/05/10 01:58:45;;;;;;;1.53;1.00;;;21.30;63.80;;;;;;5070183;28;20190;-44
2023/05/10 02:01:17;;;;;;;1.43;1.00;;;21.30;63.80;;;;;;5048632;28;20202;-45
2023/05/10 02:04:07;;;;;;;0.80;0.80;;;21.30;63.80;;;;;;5048779;28;20675;-45
2023/05/10 02:06:51;;;;;;;1.10;1.00;;;21.30;63.80;;;;;;5060229;28;20251;-45
2023/05/10 02:09:26;;;;;;;1.50;1.10;;;21.30;63.80;;;;;;5052929;28;20212;-45
2023/05/10 02:11:56;;;;;;;1.37;1.00;;;21.30;63.80;;;;;;5045293;28;20861;-44
2023/05/10 02:14:26;;;;;;;0.90;0.90;;;21.30;63.80;;;;;;5067012;28;20214;-44
2023/05/10 02:17:01;;;;;;;0.90;0.90;;;21.30;63.70;;;;;;5032874;28;20674;-44
2023/05/10 02:19:40;;;;;;;1.13;1.03;;;21.20;63.70;;;;;;5050710;28;20290;-44
2023/05/10 02:22:12;;;;;;;1.63;1.07;;;21.30;63.80;;;;;;5047676;28;20607;-44
2023/05/10 02:24:45;;;;;;;1.40;0.93;;;21.20;63.80;;;;;;5044584;28;20224;-45
2023/05/10 02:27:17;;;;;;;1.40;1.30;;;21.30;63.80;;;;;;5051796;28;20638;-45
2023/05/10 02:29:46;;;;;;;1.50;1.40;;;21.30;63.80;;;;;;5048106;28;20201;-45
2023/05/10 02:32:17;;;;;;;2.63;1.10;;;21.30;63.80;;;;;;5065845;28;20562;-45
2023/05/10 02:34:51;;;;;;;1.77;1.40;;;21.30;63.80;;;;;;5061166;28;20209;-45
2023/05/10 02:37:24;;;;;;;2.03;1.57;;;21.30;63.80;;;;;;5046517;28;20201;-45
2023/05/10 02:39:59;;;;;;;1.30;1.20;;;21.20;63.80;;;;;;5050843;28;20217;-44
2023/05/10 02:42:37;;;;;;;1.47;1.37;;;21.30;63.90;;;;;;5052732;28;20574;-44
2023/05/10 02:45:12;;;;;;;1.40;1.30;;;21.30;63.90;;;;;;5048395;28;20709;-45
2023/05/10 02:47:40;;;;;;;1.30;1.20;;;21.20;64.40;;;;;;5018584;28;20632;-44
2023/05/10 02:50:11;;;;;;;2.67;1.30;;;21.20;63.80;;;;;;5062848;28;20225;-44
2023/05/10 02:52:46;;;;;;;2.03;1.10;;;21.20;63.90;;;;;;5050085;28;20204;-44
2023/05/10 02:55:25;;;;;;;1.63;1.30;;;21.20;63.80;;;;;;5050328;28;20296;-45
2023/05/10 02:58:01;;;;;;;1.43;1.27;;;21.20;63.80;;;;;;5039604;28;20205;-45
2023/05/10 03:00:46;;;;;;;1.70;1.53;;;21.20;63.90;;;;;;5043383;28;20253;-45
2023/05/10 03:03:16;;;;;;;1.57;1.47;;;21.20;63.90;;;;;;5068778;28;20251;-45
2023/05/10 03:05:48;;;;;;;2.17;1.50;;;21.20;63.90;;;;;;5067111;28;20618;-44
2023/05/10 03:08:20;;;;;;;3.00;1.40;;;21.20;63.90;;;;;;5071694;28;20213;-44
2023/05/10 03:11:20;;;;;;;1.67;1.57;;;21.20;63.90;;;;;;5068397;28;20194;-45
2023/05/10 03:14:31;;;;;;;1.50;1.40;;;21.20;63.90;;;;;;5055114;28;20295;-44
2023/05/10 03:17:15;;;;;;;2.53;1.80;;;21.20;63.90;;;;;;5072991;28;20201;-44
2023/05/10 03:20:04;;;;;;;2.20;2.00;;;21.20;64.10;;;;;;5069100;28;20215;-44
2023/05/10 03:22:49;;;;;;;2.30;2.10;;;21.20;64.10;;;;;;5074760;28;20194;-44
2023/05/10 03:25:25;;;;;;;2.07;1.83;;;21.20;64.10;;;;;;5047663;28;20697;-44
2023/05/10 03:28:02;;;;;;;2.30;1.90;;;21.20;64.10;;;;;;5065168;28;20205;-44
2023/05/10 03:30:33;;;;;;;3.17;2.37;;;21.20;64.00;;;;;;5059399;28;20616;-44
2023/05/10 03:33:09;;;;;;;2.33;1.63;;;21.20;64.10;;;;;;5067950;28;20255;-45
2023/05/10 03:35:40;;;;;;;1.70;1.60;;;21.20;64.00;;;;;;5065438;28;20227;-44
2023/05/10 03:38:09;;;;;;;2.17;1.97;;;21.20;64.00;;;;;;5062603;28;20213;-44
2023/05/10 03:40:40;;;;;;;2.60;2.10;;;21.20;63.90;;;;;;5066208;28;20197;-44
2023/05/10 03:43:13;;;;;;;2.30;2.10;;;21.20;63.90;;;;;;5067897;28;20838;-44
2023/05/10 03:45:43;;;;;;;2.50;2.10;;;21.20;63.90;;;;;;5065880;28;20186;-44
2023/05/10 03:48:15;;;;;;;2.20;2.00;;;21.20;63.90;;;;;;5063337;28;20623;-45
2023/05/10 03:50:49;;;;;;;3.80;2.50;;;21.20;63.90;;;;;;5068904;28;20209;-44
2023/05/10 03:53:20;;;;;;;2.70;2.20;;;21.20;63.90;;;;;;5067621;28;20503;-44
2023/05/10 03:55:50;;;;;;;4.57;2.60;;;21.20;63.80;;;;;;5078768;28;20205;-43
2023/05/10 03:58:32;;;;;;;3.60;2.80;;;21.20;63.80;;;;;;5052090;28;20194;-43
2023/05/10 04:01:07;;;;;;;6.63;2.67;;;21.20;63.80;;;;;;5071604;28;20189;-44
2023/05/10 04:03:36;;;;;;;3.20;2.67;;;21.20;63.80;;;;;;5067538;28;20198;-44
2023/05/10 04:06:08;;;;;;;2.83;2.63;;;21.10;63.80;;;;;;5076513;28;20208;-44
2023/05/10 04:08:48;;;;;;;3.23;2.83;;;21.10;63.80;;;;;;5067863;28;20247;-44
2023/05/10 04:11:21;;;;;;;2.80;2.60;;;21.20;63.90;;;;;;5076396;28;20190;-44
2023/05/10 04:13:53;;;;;;;3.20;2.90;;;21.10;63.80;;;;;;5057322;28;20213;-44
2023/05/10 04:16:22;;;;;;;5.03;2.87;;;21.20;63.80;;;;;;5053481;28;20231;-44
2023/05/10 04:18:53;;;;;;;5.63;3.10;;;21.20;63.80;;;;;;5068415;28;20208;-44
2023/05/10 04:21:21;;;;;;;3.63;3.00;;;21.10;63.70;;;;;;5077864;28;20297;-43
2023/05/10 04:23:57;;;;;;;3.23;2.93;;;21.20;63.80;;;;;;5063904;28;20255;-43
2023/05/10 04:26:31;;;;;;;3.70;3.30;;;21.10;63.80;;;;;;5070022;28;20255;-43
2023/05/10 04:29:00;;;;;;;2.93;2.70;;;21.10;63.80;;;;;;5066011;28;20231;-43
2023/05/10 04:31:34;;;;;;;4.17;3.77;;;21.10;63.70;;;;;;5061165;28;20192;-43
2023/05/10 04:34:05;;;;;;;3.80;3.37;;;21.10;63.70;;;;;;5065425;28;20764;-43
2023/05/10 04:36:35;;;;;;;3.90;3.43;;;21.10;63.70;;;;;;5078800;28;20194;-44
2023/05/10 04:39:05;;;;;;;4.03;3.27;;;21.10;63.70;;;;;;5051222;28;20260;-44
2023/05/10 04:41:38;;;;;;;4.50;3.83;;;21.20;63.80;;;;;;5063052;28;20204;-44
2023/05/10 04:44:10;;;;;;;4.10;3.27;;;21.10;63.70;;;;;;5047971;28;20651;-44
2023/05/10 04:46:52;;;;;;;4.67;3.63;;;21.10;63.70;;;;;;5072986;28;20198;-43
2023/05/10 04:49:22;;;;;;;5.50;3.80;;;21.10;63.70;;;;;;5066611;28;20639;-44
2023/05/10 04:51:53;;;;;;;4.27;3.87;;;21.10;63.70;;;;;;5066965;28;20311;-44
2023/05/10 04:54:22;;;;;;;4.20;3.77;;;21.10;63.70;;;;;;5063609;28;20229;-43
2023/05/10 04:56:52;;;;;;;4.27;3.87;;;21.10;63.70;;;;;;5067728;28;20201;-44
2023/05/10 04:59:20;;;;;;;4.43;4.03;;;21.10;63.70;;;;;;5049697;28;20237;-44
2023/05/10 05:01:48;;;;;;;4.17;3.77;;;21.10;63.70;;;;;;5058647;28;20607;-44
2023/05/10 05:04:19;;;;;;;4.20;3.80;;;21.10;63.70;;;;;;5045041;28;20234;-44
2023/05/10 05:06:50;;;;;;;5.30;4.80;;;21.10;64.30;;;;;;5047073;28;20241;-44
2023/05/10 05:09:21;;;;;;;4.33;3.93;;;21.10;63.60;;;;;;5059568;28;20203;-44
2023/05/10 05:11:49;;;;;;;4.47;4.07;;;21.10;63.70;;;;;;5053823;28;20263;-44
2023/05/10 05:14:21;;;;;;;4.90;4.37;;;21.10;63.60;;;;;;5027258;28;20656;-43
2023/05/10 05:16:53;;;;;;;6.87;4.77;;;21.10;63.60;;;;;;5046979;28;20199;-43
2023/05/10 05:19:23;;;;;;;4.67;4.27;;;21.10;63.60;;;;;;5046533;28;20206;-43
2023/05/10 05:21:53;;;;;;;4.90;4.33;;;21.10;63.70;;;;;;5046259;28;20939;-43
2023/05/10 05:24:23;;;;;;;5.17;4.67;;;21.10;63.70;;;;;;5042609;28;20195;-43
2023/05/10 05:26:54;;;;;;;5.40;4.90;;;21.10;63.70;;;;;;5026614;28;20218;-44
2023/05/10 05:29:24;;;;;;;6.13;5.37;;;21.10;63.70;;;;;;5047553;28;20264;-44
2023/05/10 05:31:55;;;;;;;5.83;5.23;;;21.10;63.70;;;;;;5048377;28;20202;-44
2023/05/10 05:34:27;;;;;;;17.60;8.33;;;21.10;63.70;;;;;;5050339;28;20202;-44
2023/05/10 05:36:59;;;;;;;15.90;8.50;;;21.10;63.70;;;;;;5049439;28;20206;-44
2023/05/10 05:39:29;;;;;;;14.13;8.23;;;21.10;63.90;;;;;;5047611;28;20246;-44
2023/05/10 05:42:01;;;;;;;15.73;8.63;;;21.10;64.00;;;;;;5044510;28;20199;-44
2023/05/10 05:44:31;;;;;;;14.40;9.77;;;21.10;64.00;;;;;;5043181;28;20675;-44
2023/05/10 05:47:02;;;;;;;15.83;9.13;;;21.10;64.00;;;;;;5043850;28;20199;-43
2023/05/10 05:49:34;;;;;;;15.23;8.50;;;21.10;64.10;;;;;;5028819;28;20675;-43
2023/05/10 05:52:05;;;;;;;16.50;9.70;;;21.10;64.10;;;;;;5032076;28;20205;-43
2023/05/10 05:54:35;;;;;;;16.13;10.07;;;21.10;64.30;;;;;;5052747;28;20289;-43
2023/05/10 05:57:04;;;;;;;19.30;9.93;;;21.10;64.30;;;;;;5050338;28;20210;-43
2023/05/10 05:59:34;;;;;;;15.50;9.80;;;21.10;64.40;;;;;;5049228;28;20234;-43
2023/05/10 06:02:05;;;;;;;12.97;9.57;;;21.10;64.30;;;;;;5053479;28;20199;-43
2023/05/10 06:04:48;;;;;;;20.20;9.57;;;21.10;64.40;;;;;;5040148;28;20291;-44
2023/05/10 06:07:19;;;;;;;14.47;10.03;;;21.10;64.50;;;;;;5056078;28;20233;-43
2023/05/10 06:09:49;;;;;;;19.13;10.87;;;21.10;64.70;;;;;;5051782;28;20194;-43
2023/05/10 06:12:19;;;;;;;15.27;10.30;;;21.10;64.70;;;;;;5048597;28;20194;-43
2023/05/10 06:14:48;;;;;;;16.30;10.53;;;21.10;64.70;;;;;;5047355;28;20246;-44
2023/05/10 06:17:18;;;;;;;14.83;10.13;;;21.10;64.70;;;;;;5049630;28;20186;-44
2023/05/10 06:19:48;;;;;;;12.77;9.83;;;21.10;64.70;;;;;;5054921;28;20198;-43
2023/05/10 06:22:22;;;;;;;15.43;9.93;;;21.10;64.60;;;;;;5048724;28;20194;-43
2023/05/10 06:24:53;;;;;;;17.70;10.53;;;21.10;64.50;;;;;;5054427;28;20197;-43
2023/05/10 06:27:22;;;;;;;14.13;10.77;;;21.10;64.50;;;;;;5048029;28;20222;-43
2023/05/10 06:29:52;;;;;;;15.87;10.63;;;21.10;64.50;;;;;;5050329;28;20608;-43
2023/05/10 06:32:32;;;;;;;15.40;10.07;;;21.10;64.50;;;;;;5053430;28;20228;-44
2023/05/10 06:35:06;;;;;;;17.53;11.33;;;21.10;64.50;;;;;;5042263;28;20202;-44
2023/05/10 06:37:36;;;;;;;16.10;10.73;;;21.10;64.50;;;;;;5054720;28;20558;-44
2023/05/10 06:40:06;;;;;;;14.33;10.33;;;21.10;64.40;;;;;;5047465;28;20289;-42
2023/05/10 06:42:37;;;;;;;15.03;10.40;;;21.10;64.40;;;;;;5056393;28;20206;-43
2023/05/10 06:45:10;;;;;;;14.07;10.00;;;21.10;64.40;;;;;;5052601;28;20220;-43
2023/05/10 06:47:42;;;;;;;15.20;10.00;;;21.10;64.40;;;;;;5049090;28;20203;-44
2023/05/10 06:50:11;;;;;;;14.13;9.83;;;21.10;64.30;;;;;;5030236;28;20551;-43
2023/05/10 06:52:41;;;;;;;15.60;10.50;;;21.10;64.30;;;;;;5045425;28;20208;-43
2023/05/10 06:55:11;;;;;;;13.10;9.87;;;21.10;64.30;;;;;;5051264;28;20682;-44
2023/05/10 06:57:42;;;;;;;14.70;9.70;;;21.10;64.20;;;;;;5054681;28;20752;-44
2023/05/10 07:00:14;;;;;;;13.07;10.00;;;21.10;64.20;;;;;;5070770;28;20238;-44
2023/05/10 07:02:46;;;;;;;11.60;9.10;;;21.10;64.30;;;;;;5085652;28;20217;-44
2023/05/10 07:05:30;;;;;;;13.03;9.70;;;21.10;64.20;;;;;;5071067;28;20873;-44
2023/05/10 07:08:00;;;;;;;16.03;9.80;;;21.10;64.40;;;;;;5085895;28;20198;-45
2023/05/10 07:10:32;;;;;;;12.37;8.80;;;21.10;64.30;;;;;;5087889;28;20185;-42
2023/05/10 07:13:03;;;;;;;12.97;9.37;;;21.10;64.30;;;;;;5054618;28;20200;-44
2023/05/10 07:15:36;;;;;;;12.93;8.83;;;21.10;64.20;;;;;;5085470;28;20237;-44
2023/05/10 07:18:08;;;;;;;10.77;8.30;;;21.10;64.20;;;;;;5078867;28;20254;-44
2023/05/10 07:20:37;;;;;;;15.33;8.90;;;21.10;64.20;;;;;;5085886;28;20211;-43
2023/05/10 07:23:08;;;;;;;12.73;8.47;;;21.10;64.10;;;;;;5088763;28;20223;-44
2023/05/10 07:25:38;;;;;;;9.13;8.20;;;21.10;64.10;;;;;;5078635;28;20266;-44
2023/05/10 07:28:09;;;;;;;10.27;7.43;;;21.10;64.10;;;;;;5084188;28;20213;-44
2023/05/10 07:30:39;;;;;;;11.60;8.30;;;21.10;64.10;;;;;;5089342;28;20181;-43
2023/05/10 07:33:15;;;;;;;10.97;8.10;;;21.10;64.20;;;;;;5088783;28;20280;-43
2023/05/10 07:35:49;;;;;;;9.73;7.97;;;21.10;64.20;;;;;;5064531;28;20204;-43
2023/05/10 07:38:23;;;;;;;10.37;8.20;;;21.10;64.20;;;;;;5046946;28;20205;-43
2023/05/10 07:40:53;;;;;;;8.83;7.33;;;21.10;64.10;;;;;;5088477;28;20182;-43
2023/05/10 07:43:25;;;;;;;9.57;7.07;;;21.10;64.10;;;;;;5094905;28;20195;-43
2023/05/10 07:45:54;;;;;;;10.80;8.33;;;21.20;64.20;;;;;;5088576;28;20208;-43
2023/05/10 07:48:24;;;;;;;8.80;7.10;;;21.10;64.20;;;;;;5088985;28;20186;-43
2023/05/10 07:50:52;;;;;;;10.50;7.17;;;21.10;64.20;;;;;;5093958;28;20205;-43
2023/05/10 07:53:25;;;;;;;11.83;7.23;;;21.20;64.20;;;;;;5094424;28;20197;-43
2023/05/10 07:55:59;;;;;;;7.33;6.10;;;21.20;64.30;;;;;;5090359;28;20213;-43
2023/05/10 07:58:34;;;;;;;9.23;7.00;;;21.20;64.30;;;;;;5091580;28;20193;-44
2023/05/10 08:01:05;;;;;;;8.27;6.50;;;21.20;64.30;;;;;;5093758;28;20786;-43
2023/05/10 08:03:43;;;;;;;8.77;6.53;;;21.10;64.30;;;;;;5086205;28;20196;-44
2023/05/10 08:06:11;;;;;;;8.73;6.93;;;21.20;64.30;;;;;;5090206;28;20200;-43
2023/05/10 08:08:40;;;;;;;8.47;6.80;;;21.20;64.30;;;;;;5074213;28;20322;-43
2023/05/10 08:11:10;;;;;;;10.13;7.60;;;21.10;64.20;;;;;;5092897;28;20288;-44
2023/05/10 08:13:43;;;;;;;8.90;6.60;;;21.10;64.20;;;;;;5093412;28;20891;-44
2023/05/10 08:16:13;;;;;;;7.30;6.23;;;21.10;64.10;;;;;;5066726;28;20248;-43
2023/05/10 08:18:46;;;;;;;10.53;7.40;;;21.10;64.10;;;;;;5088494;28;20291;-44
2023/05/10 08:21:16;;;;;;;9.47;7.30;;;21.20;64.10;;;;;;5071885;28;20232;-43
2023/05/10 08:24:01;;;;;;;9.37;6.87;;;21.10;64.00;;;;;;5085831;28;20204;-43
2023/05/10 08:26:28;;;;;;;10.37;7.13;;;21.20;64.10;;;;;;5086399;28;20639;-43
2023/05/10 08:28:58;;;;;;;11.33;6.70;;;21.20;64.10;;;;;;5081978;28;20212;-43
2023/05/10 08:31:29;;;;;;;7.30;6.10;;;21.20;64.10;;;;;;5087625;28;20189;-43
2023/05/10 08:34:00;;;;;;;9.10;6.67;;;21.10;64.10;;;;;;5086680;28;20204;-43
2023/05/10 08:36:32;;;;;;;8.87;6.90;;;21.20;64.20;;;;;;5080243;28;20217;-43
2023/05/10 08:39:05;;;;;;;11.60;7.90;;;21.10;64.30;;;;;;5069139;28;20220;-43
2023/05/10 08:41:53;;;;;;;7.50;5.70;;;21.20;64.40;;;;;;5086391;28;20216;-44
2023/05/10 08:44:25;;;;;;;11.63;6.90;;;21.10;64.30;;;;;;5069950;28;20204;-43
2023/05/10 08:47:02;;;;;;;8.93;6.07;;;21.20;64.40;;;;;;5069015;28;20213;-43
2023/05/10 08:49:33;;;;;;;7.23;5.73;;;21.30;64.50;;;;;;5083891;28;20185;-44
2023/05/10 08:52:11;;;;;;;9.03;6.00;;;21.30;64.80;;;;;;5079722;28;20208;-43
2023/05/10 08:54:41;;;;;;;7.13;5.80;;;21.30;64.80;;;;;;5087907;28;20674;-43
2023/05/10 08:57:09;;;;;;;6.67;5.73;;;21.30;65.20;;;;;;5086970;28;20689;-43
2023/05/10 08:59:39;;;;;;;7.33;5.30;;;21.40;65.00;;;;;;5043623;28;20238;-43
2023/05/10 09:02:14;;;;;;;6.93;5.03;;;21.40;65.00;;;;;;5037902;28;20207;-43
2023/05/10 09:04:46;;;;;;;11.37;5.50;;;21.40;64.80;;;;;;5050762;28;20204;-44
2023/05/10 09:07:19;;;;;;;7.67;5.50;;;21.40;65.00;;;;;;5044999;28;20660;-43
2023/05/10 09:09:49;;;;;;;6.90;4.83;;;21.50;65.20;;;;;;5046869;28;20679;-44
2023/05/10 09:12:18;;;;;;;8.63;5.13;;;21.50;66.10;;;;;;5049885;28;20735;-43
2023/05/10 09:14:55;;;;;;;8.80;5.50;;;21.50;65.70;;;;;;5046364;28;20222;-43
2023/05/10 09:17:27;;;;;;;7.50;4.57;;;21.50;65.30;;;;;;5049842;28;20220;-45
2023/05/10 09:20:03;;;;;;;7.60;5.10;;;21.50;64.80;;;;;;5045803;28;20232;-44
2023/05/10 09:22:34;;;;;;;7.30;4.90;;;21.60;65.80;;;;;;5032839;28;20190;-44
2023/05/10 09:25:16;;;;;;;10.33;5.27;;;21.60;64.80;;;;;;5025867;28;20205;-44
2023/05/10 09:27:59;;;;;;;7.87;4.67;;;21.60;65.30;;;;;;5024968;28;20245;-43
2023/05/10 09:30:32;;;;;;;7.67;4.57;;;21.60;64.90;;;;;;5034425;28;20198;-43
2023/05/10 09:33:03;;;;;;;10.77;4.43;;;21.60;64.60;;;;;;5037085;28;20401;-43
2023/05/10 09:35:33;;;;;;;11.90;4.60;;;21.60;64.40;;;;;;5050858;28;20387;-44
2023/05/10 09:38:04;;;;;;;7.80;4.20;;;21.70;64.20;;;;;;5031817;28;20198;-44
2023/05/10 09:40:32;;;;;;;7.30;4.40;;;21.70;64.30;;;;;;5035513;28;20671;-43
2023/05/10 09:43:06;;;;;;;8.43;4.10;;;21.70;64.10;;;;;;5031822;28;20213;-44
2023/05/10 09:45:34;;;;;;;8.37;3.90;;;21.70;63.70;;;;;;5056688;28;20697;-44
2023/05/10 09:48:07;;;;;;;7.80;3.60;;;21.80;63.60;;;;;;5019093;28;20225;-45
2023/05/10 09:50:36;;;;;;;6.10;3.77;;;21.70;63.30;;;;;;5053332;28;20292;-42
2023/05/10 09:53:06;;;;;;;4.73;3.37;;;21.80;63.50;;;;;;5052951;28;20231;-42
2023/05/10 09:55:46;;;;;;;5.40;3.33;;;21.80;63.40;;;;;;5054425;28;20219;-43
2023/05/10 09:58:21;;;;;;;6.43;3.67;;;21.80;63.60;;;;;;5033220;28;20198;-44
2023/05/10 10:00:53;;;;;;;7.93;3.43;;;21.80;63.80;;;;;;5069917;28;20588;-45
2023/05/10 10:03:24;;;;;;;7.20;4.20;;;21.80;63.50;;;;;;5058647;28;20553;-45
2023/05/10 10:05:53;;;;;;;7.30;3.97;;;21.80;64.40;;;;;;5068161;28;20217;-44
2023/05/10 10:08:22;;;;;;;6.23;3.33;;;21.80;64.60;;;;;;5042528;28;20198;-44
2023/05/10 10:10:52;;;;;;;7.57;3.97;;;21.90;63.50;;;;;;5038521;28;20531;-44
2023/05/10 10:13:23;;;;;;;7.33;4.00;;;21.90;66.40;;;;;;5070317;28;20585;-44
2023/05/10 10:15:55;;;;;;;5.83;4.17;;;21.90;66.40;;;;;;5058139;28;20218;-45
2023/05/10 10:18:28;;;;;;;6.03;4.10;;;21.80;66.70;;;;;;5070748;28;20871;-45
2023/05/10 10:20:59;;;;;;;7.67;3.77;;;21.90;66.90;;;;;;5071214;28;20225;-44
2023/05/10 10:23:32;;;;;;;9.10;4.17;;;21.80;67.80;;;;;;5070658;28;20207;-44
2023/05/10 10:26:10;;;;;;;9.67;3.87;;;21.80;68.30;;;;;;5045183;28;20591;-45
2023/05/10 10:29:18;;;;;;;8.23;4.23;;;21.80;68.40;;;;;;5071922;28;20202;-45
2023/05/10 10:32:15;;;;;;;8.07;4.30;;;21.80;69.20;;;;;;5065564;28;20232;-44
2023/05/10 10:34:45;;;;;;;6.10;3.77;;;21.80;69.70;;;;;;5069835;28;20202;-44
2023/05/10 10:37:17;;;;;;;7.20;4.07;;;21.80;70.10;;;;;;5069817;28;20205;-44
2023/05/10 10:39:47;;;;;;;8.50;4.13;;;21.80;70.60;;;;;;5070038;28;20275;-44
2023/05/10 10:42:14;;;;;;;7.83;4.43;;;21.80;70.50;;;;;;5034351;28;20263;-43
2023/05/10 10:44:46;;;;;;;5.07;3.63;;;21.80;70.70;;;;;;5063159;28;20198;-44
2023/05/10 10:47:28;;;;;;;7.33;4.00;;;21.80;70.40;;;;;;5070267;28;20189;-45
2023/05/10 10:50:01;;;;;;;6.10;3.60;;;21.80;70.60;;;;;;5050688;28;20664;-44
2023/05/10 10:52:41;;;;;;;5.83;3.90;;;21.80;70.40;;;;;;5070454;28;20556;-44
2023/05/10 10:55:26;;;;;;;6.87;4.70;;;21.80;70.30;;;;;;5043766;28;20246;-45
2023/05/10 10:58:04;;;;;;;8.03;4.20;;;21.80;70.50;;;;;;5051235;28;20678;-44
2023/05/10 11:01:19;;;;;;;5.50;3.87;;;21.80;70.30;;;;;;5066794;28;20683;-44
2023/05/10 11:04:17;;;;;;;4.90;3.63;;;21.80;69.90;;;;;;5051275;28;20194;-44
2023/05/10 11:06:50;;;;;;;5.97;3.57;;;21.80;69.30;;;;;;4982573;28;20219;-44
2023/05/10 11:09:39;;;;;;;8.13;3.90;;;21.80;70.20;;;;;;4993032;28;20676;-43
2023/05/10 11:12:09;;;;;;;6.80;3.70;;;21.80;70.50;;;;;;4968480;28;20311;-43
2023/05/10 11:14:39;;;;;;;9.37;4.40;;;21.80;71.20;;;;;;4970576;28;20204;-43
2023/05/10 11:17:26;;;;;;;5.53;3.70;;;21.80;71.20;;;;;;5020515;28;20261;-43
2023/05/10 11:20:14;;;;;;;8.03;3.93;;;21.80;70.90;;;;;;5055472;28;20224;-43
2023/05/10 11:23:13;;;;;;;9.67;3.90;;;21.80;71.40;;;;;;5045441;28;20206;-43
2023/05/10 11:25:47;;;;;;;8.73;4.00;;;21.80;71.50;;;;;;5054201;28;20201;-43
2023/05/10 11:28:21;;;;;;;8.70;4.07;;;21.80;71.60;;;;;;5062439;28;20208;-43
2023/05/10 11:30:53;;;;;;;7.83;3.43;;;21.80;71.60;;;;;;5057194;28;20513;-43
2023/05/10 11:33:23;;;;;;;5.93;3.70;;;21.80;71.60;;;;;;5068474;28;20212;-43
2023/05/10 11:35:52;;;;;;;5.50;3.10;;;21.80;71.90;;;;;;5063201;28;20202;-43
2023/05/10 11:38:23;;;;;;;6.03;3.13;;;21.80;71.90;;;;;;5063238;28;20221;-43
2023/05/10 11:40:53;;;;;;;5.03;3.50;;;21.80;71.70;;;;;;5056785;28;20208;-43
2023/05/10 11:43:27;;;;;;;5.00;3.20;;;21.80;71.70;;;;;;5046367;28;20826;-43
2023/05/10 11:45:55;;;;;;;5.63;3.90;;;21.80;71.40;;;;;;5044670;28;20212;-43
2023/05/10 11:48:23;;;;;;;5.87;3.00;;;21.80;71.60;;;;;;5047367;28;20219;-43
2023/05/10 11:50:56;;;;;;;4.90;3.20;;;21.80;71.60;;;;;;5067649;28;20190;-43
2023/05/10 11:53:31;;;;;;;5.77;3.00;;;21.80;71.50;;;;;;5066686;28;20610;-43
2023/05/10 11:56:11;;;;;;;7.40;3.27;;;21.80;71.20;;;;;;5043788;28;20206;-42
2023/05/10 11:58:40;;;;;;;5.20;2.80;;;21.80;71.40;;;;;;5054230;28;20587;-43
2023/05/10 12:01:12;;;;;;;5.43;3.10;;;21.80;71.30;;;;;;5042631;28;20198;-43
2023/05/10 12:04:01;;;;;;;5.20;3.30;;;21.80;71.30;;;;;;5048855;28;20259;-42
2023/05/10 12:06:40;;;;;;;4.87;3.27;;;21.80;71.40;;;;;;5011562;28;20248;-42
2023/05/10 12:09:12;;;;;;;5.27;3.40;;;21.80;71.30;;;;;;5018065;28;21004;-44
2023/05/10 12:11:41;;;;;;;5.37;3.83;;;21.80;71.00;;;;;;5044182;28;20616;-44
2023/05/10 12:14:15;;;;;;;5.17;3.47;;;21.80;71.40;;;;;;5024543;28;20489;-44
2023/05/10 12:16:47;;;;;;;5.30;3.73;;;21.80;71.00;;;;;;5041859;28;20212;-44
2023/05/10 12:19:21;;;;;;;4.83;3.73;;;21.80;71.10;;;;;;5046197;28;20260;-43
2023/05/10 12:21:58;;;;;;;7.00;3.67;;;21.80;71.20;;;;;;5040525;28;20748;-44
2023/05/10 12:24:30;;;;;;;4.43;3.53;;;21.80;71.30;;;;;;5052858;28;20200;-43
2023/05/10 12:26:57;;;;;;;4.23;3.70;;;21.80;70.80;;;;;;5050685;28;20601;-43
2023/05/10 12:29:44;;;;;;;4.50;4.07;;;21.80;71.20;;;;;;5049094;28;20279;-43
2023/05/10 12:32:18;;;;;;;7.83;4.00;;;21.80;71.10;;;;;;5009361;28;20205;-43
2023/05/10 12:34:53;;;;;;;6.53;3.70;;;21.80;70.80;;;;;;5046599;28;20198;-43
2023/05/10 12:37:27;;;;;;;5.13;3.97;;;21.80;70.80;;;;;;5030910;28;20229;-43
2023/05/10 12:39:58;;;;;;;5.67;4.00;;;21.80;70.60;;;;;;5015592;28;20196;-43
2023/05/10 12:42:27;;;;;;;5.03;4.40;;;21.80;70.60;;;;;;5047520;28;20222;-43
2023/05/10 12:44:59;;;;;;;7.17;4.20;;;21.80;70.20;;;;;;5053667;28;20205;-43
2023/05/10 12:47:29;;;;;;;5.87;4.60;;;21.80;70.80;;;;;;5019416;28;20202;-44
2023/05/10 12:50:02;;;;;;;4.80;4.33;;;21.80;70.80;;;;;;5053248;28;20217;-44
2023/05/10 12:52:37;;;;;;;6.97;4.53;;;21.80;70.60;;;;;;5019212;28;20201;-45
2023/05/10 12:55:08;;;;;;;5.70;4.53;;;21.80;70.40;;;;;;5037788;28;20655;-43
2023/05/10 12:57:40;;;;;;;5.10;4.47;;;21.80;70.60;;;;;;5052821;28;20325;-44
2023/05/10 13:00:10;;;;;;;6.53;4.70;;;21.80;70.40;;;;;;5060041;28;20308;-44
2023/05/10 13:02:41;;;;;;;6.77;4.77;;;21.80;70.20;;;;;;5070566;28;20190;-43
2023/05/10 13:05:25;;;;;;;5.10;4.60;;;21.80;70.10;;;;;;5055704;28;20237;-43
2023/05/10 13:07:56;;;;;;;6.23;4.87;;;21.80;70.10;;;;;;5061932;28;20280;-43
2023/05/10 13:10:25;;;;;;;6.83;4.27;;;21.80;70.20;;;;;;5071637;28;20207;-45
2023/05/10 13:12:58;;;;;;;4.33;3.93;;;21.80;70.40;;;;;;5064411;28;20684;-43
2023/05/10 13:15:26;;;;;;;5.10;4.43;;;21.70;70.40;;;;;;5053082;28;20194;-44
2023/05/10 13:17:56;;;;;;;4.33;3.93;;;21.80;70.50;;;;;;5066392;28;20202;-44